createdAt,value
2018-06-01T00:00:02.141Z,19.74
2018-06-01T00:00:23.392Z,19.73
2018-06-01T00:00:45.539Z,19.74
2018-06-01T00:01:06.702Z,19.72
2018-06-01T00:01:27.953Z,19.73
2018-06-01T00:01:50.944Z,19.73
2018-06-01T00:02:13.079Z,19.71
2018-06-01T00:02:36.091Z,19.71
2018-06-01T00:02:57.713Z,19.70
2018-06-01T00:03:19.342Z,19.70
2018-06-01T00:03:42.352Z,19.71
2018-06-01T00:04:05.113Z,19.72
2018-06-01T00:04:27.470Z,19.70
2018-06-01T00:04:49.621Z,19.71
2018-06-01T00:05:10.838Z,19.70
2018-06-01T00:05:33.834Z,19.71
2018-06-01T00:05:56.227Z,19.71
2018-06-01T00:06:17.530Z,19.69
2018-06-01T00:06:40.536Z,19.70
2018-06-01T00:07:01.789Z,19.68
2018-06-01T00:07:24.779Z,19.68
2018-06-01T00:07:46.076Z,19.69
2018-06-01T00:08:09.166Z,19.68
2018-06-01T00:08:30.509Z,19.67
2018-06-01T00:08:51.838Z,19.68
2018-06-01T00:09:16.033Z,19.68
2018-06-01T00:09:39.021Z,19.66
2018-06-01T00:10:02.050Z,19.67
2018-06-01T00:10:23.302Z,19.65
2018-06-01T00:10:44.541Z,19.66
2018-06-01T00:11:06.179Z,19.68
2018-06-01T00:11:29.190Z,19.68
2018-06-01T00:11:50.804Z,19.67
2018-06-01T00:12:13.816Z,19.68
2018-06-01T00:12:35.464Z,19.69
2018-06-01T00:12:57.091Z,19.69
2018-06-01T00:13:19.141Z,19.69
2018-06-01T00:13:41.561Z,19.70
2018-06-01T00:14:03.909Z,19.70
2018-06-01T00:14:26.983Z,19.71
2018-06-01T00:14:49.999Z,19.70
2018-06-01T00:15:12.980Z,19.70
2018-06-01T00:15:35.731Z,19.70
2018-06-01T00:15:57.019Z,19.70
2018-06-01T00:16:18.372Z,19.69
2018-06-01T00:16:41.385Z,19.72
2018-06-01T00:17:03.757Z,19.71
2018-06-01T00:17:26.123Z,19.73
2018-06-01T00:17:47.820Z,19.73
2018-06-01T00:18:09.111Z,19.71
2018-06-01T00:18:32.117Z,19.74
2018-06-01T00:18:53.363Z,19.72
2018-06-01T00:19:14.990Z,19.72
2018-06-01T00:19:39.980Z,19.72
2018-06-01T00:20:01.994Z,19.73
2018-06-01T00:20:24.049Z,19.74
2018-06-01T00:20:46.398Z,19.75
2018-06-01T00:21:07.730Z,19.75
2018-06-01T00:21:30.724Z,19.77
2018-06-01T00:21:53.710Z,19.77
2018-06-01T00:22:14.988Z,19.77
2018-06-01T00:22:36.977Z,19.78
2018-06-01T00:22:58.262Z,19.78
2018-06-01T00:23:19.543Z,19.79
2018-06-01T00:23:41.163Z,19.80
2018-06-01T00:24:03.180Z,19.79
2018-06-01T00:24:24.471Z,19.80
2018-06-01T00:24:47.489Z,19.85
2018-06-01T00:25:09.558Z,19.84
2018-06-01T00:25:31.550Z,19.85
2018-06-01T00:25:53.181Z,19.85
2018-06-01T00:26:14.659Z,19.84
2018-06-01T00:26:35.908Z,19.85
2018-06-01T00:26:58.693Z,19.88
2018-06-01T00:27:20.309Z,19.86
2018-06-01T00:27:41.600Z,19.87
2018-06-01T00:28:02.823Z,19.87
2018-06-01T00:28:25.234Z,19.88
2018-06-01T00:28:47.579Z,19.89
2018-06-01T00:29:10.933Z,19.89
2018-06-01T00:29:33.999Z,19.88
2018-06-01T00:29:56.399Z,19.88
2018-06-01T00:30:18.753Z,19.92
2018-06-01T00:30:40.019Z,19.88
2018-06-01T00:31:01.275Z,19.89
2018-06-01T00:31:24.083Z,19.89
2018-06-01T00:31:45.321Z,19.87
2018-06-01T00:32:06.959Z,19.89
2018-06-01T00:32:28.219Z,19.87
2018-06-01T00:32:49.463Z,19.89
2018-06-01T00:33:10.743Z,19.89
2018-06-01T00:33:33.176Z,19.89
2018-06-01T00:33:54.455Z,19.90
2018-06-01T00:34:15.741Z,19.92
2018-06-01T00:34:38.156Z,19.93
2018-06-01T00:35:00.137Z,19.94
2018-06-01T00:35:23.114Z,19.94
2018-06-01T00:35:45.915Z,19.95
2018-06-01T00:36:07.532Z,19.94
2018-06-01T00:36:29.580Z,19.93
2018-06-01T00:36:51.607Z,19.95
2018-06-01T00:37:14.574Z,19.94
2018-06-01T00:37:36.206Z,19.96
2018-06-01T00:37:58.196Z,19.97
2018-06-01T00:38:19.890Z,19.98
2018-06-01T00:38:41.927Z,19.99
2018-06-01T00:39:04.033Z,19.99
2018-06-01T00:39:26.012Z,19.98
2018-06-01T00:39:47.647Z,20.00
2018-06-01T00:40:09.660Z,20.02
2018-06-01T00:40:32.413Z,20.02
2018-06-01T00:40:54.423Z,20.05
2018-06-01T00:41:16.043Z,20.05
2018-06-01T00:41:39.075Z,20.06
2018-06-01T00:42:00.343Z,20.03
2018-06-01T00:42:22.665Z,20.03
2018-06-01T00:42:45.051Z,20.02
2018-06-01T00:43:06.726Z,20.03
2018-06-01T00:43:29.696Z,20.04
2018-06-01T00:43:51.680Z,20.04
2018-06-01T00:44:12.954Z,20.03
2018-06-01T00:44:35.896Z,20.05
2018-06-01T00:44:57.127Z,20.03
2018-06-01T00:45:18.733Z,20.02
2018-06-01T00:45:41.695Z,20.02
2018-06-01T00:46:03.301Z,20.02
2018-06-01T00:46:26.280Z,20.01
2018-06-01T00:46:47.547Z,20.02
2018-06-01T00:47:10.546Z,20.03
2018-06-01T00:47:31.769Z,20.01
2018-06-01T00:47:54.551Z,20.01
2018-06-01T00:48:17.573Z,20.01
2018-06-01T00:48:38.858Z,20.01
2018-06-01T00:49:00.061Z,20.00
2018-06-01T00:49:23.282Z,20.02
2018-06-01T00:49:46.358Z,20.03
2018-06-01T00:50:07.571Z,19.99
2018-06-01T00:50:29.207Z,19.99
2018-06-01T00:50:50.472Z,19.99
2018-06-01T00:51:12.814Z,20.02
2018-06-01T00:51:34.065Z,20.00
2018-06-01T00:51:55.319Z,20.00
2018-06-01T00:52:16.568Z,20.01
2018-06-01T00:52:38.204Z,20.03
2018-06-01T00:52:59.447Z,20.01
2018-06-01T00:53:21.480Z,20.04
2018-06-01T00:53:43.118Z,20.05
2018-06-01T00:54:04.343Z,20.03
2018-06-01T00:54:28.299Z,20.05
2018-06-01T00:55:08.439Z,20.04
2018-06-01T00:55:30.408Z,20.07
2018-06-01T00:55:51.674Z,20.06
2018-06-01T00:56:13.284Z,20.08
2018-06-01T00:56:35.311Z,20.08
2018-06-01T00:56:58.046Z,20.10
2018-06-01T00:57:19.279Z,20.08
2018-06-01T00:57:42.289Z,20.09
2018-06-01T00:58:03.533Z,20.09
2018-06-01T00:58:25.908Z,20.11
2018-06-01T00:58:47.545Z,20.09
2018-06-01T00:59:08.759Z,20.09
2018-06-01T00:59:30.783Z,20.09
2018-06-01T00:59:52.005Z,20.12
2018-06-01T01:00:14.956Z,20.13
2018-06-01T01:00:37.993Z,20.16
2018-06-01T01:00:59.258Z,20.14
2018-06-01T01:01:21.969Z,20.17
2018-06-01T01:01:44.358Z,20.17
2018-06-01T01:02:05.944Z,20.13
2018-06-01T01:02:28.316Z,20.18
2018-06-01T01:02:50.686Z,20.17
2018-06-01T01:03:12.363Z,20.12
2018-06-01T01:03:35.386Z,20.14
2018-06-01T01:03:58.464Z,20.13
2018-06-01T01:04:20.110Z,20.09
2018-06-01T01:04:41.763Z,20.04
2018-06-01T01:05:03.787Z,19.98
2018-06-01T01:05:25.048Z,19.93
2018-06-01T01:05:46.685Z,19.91
2018-06-01T01:06:09.694Z,19.84
2018-06-01T01:06:30.960Z,19.75
2018-06-01T01:06:53.936Z,19.69
2018-06-01T01:07:15.930Z,19.63
2018-06-01T01:07:38.895Z,19.57
2018-06-01T01:08:01.881Z,19.53
2018-06-01T01:08:24.267Z,19.47
2018-06-01T01:08:46.295Z,19.45
2018-06-01T01:09:08.751Z,19.42
2018-06-01T01:09:30.328Z,19.36
2018-06-01T01:09:51.546Z,19.33
2018-06-01T01:10:14.548Z,19.35
2018-06-01T01:10:37.509Z,19.30
2018-06-01T01:11:00.246Z,19.28
2018-06-01T01:11:23.256Z,19.27
2018-06-01T01:11:44.875Z,19.27
2018-06-01T01:12:07.887Z,19.24
2018-06-01T01:12:29.170Z,19.22
2018-06-01T01:12:51.125Z,19.22
2018-06-01T01:13:13.499Z,19.22
2018-06-01T01:13:38.469Z,19.22
2018-06-01T01:14:00.868Z,19.22
2018-06-01T01:14:24.300Z,19.22
2018-06-01T01:14:45.931Z,19.16
2018-06-01T01:15:07.636Z,19.13
2018-06-01T01:15:30.025Z,19.07
2018-06-01T01:15:52.055Z,19.10
2018-06-01T01:16:14.148Z,19.08
2018-06-01T01:16:36.549Z,19.05
2018-06-01T01:16:59.546Z,19.03
2018-06-01T01:17:21.927Z,19.00
2018-06-01T01:17:44.895Z,18.93
2018-06-01T01:18:06.527Z,18.86
2018-06-01T01:18:29.251Z,18.87
2018-06-01T01:18:50.516Z,18.81
2018-06-01T01:19:12.984Z,18.78
2018-06-01T01:19:35.360Z,18.75
2018-06-01T01:19:56.631Z,18.72
2018-06-01T01:20:19.669Z,18.70
2018-06-01T01:20:40.962Z,18.65
2018-06-01T01:21:03.965Z,18.60
2018-06-01T01:21:25.969Z,18.61
2018-06-01T01:21:48.359Z,18.58
2018-06-01T01:22:10.313Z,18.55
2018-06-01T01:22:33.337Z,18.54
2018-06-01T01:22:55.345Z,18.54
2018-06-01T01:23:16.633Z,18.50
2018-06-01T01:23:39.651Z,18.48
2018-06-01T01:24:02.614Z,18.49
2018-06-01T01:24:24.624Z,18.47
2018-06-01T01:24:47.093Z,18.46
2018-06-01T01:25:10.089Z,18.46
2018-06-01T01:25:31.743Z,18.42
2018-06-01T01:25:53.434Z,18.43
2018-06-01T01:26:15.473Z,18.44
2018-06-01T01:26:36.704Z,18.40
2018-06-01T01:26:58.793Z,18.42
2018-06-01T01:27:21.808Z,18.35
2018-06-01T01:27:43.855Z,18.33
2018-06-01T01:28:06.300Z,18.34
2018-06-01T01:28:27.912Z,18.32
2018-06-01T01:28:50.933Z,18.34
2018-06-01T01:29:12.187Z,18.31
2018-06-01T01:29:35.181Z,18.31
2018-06-01T01:29:57.208Z,18.28
2018-06-01T01:30:19.250Z,18.23
2018-06-01T01:30:41.638Z,18.23
2018-06-01T01:31:04.655Z,18.24
2018-06-01T01:31:26.263Z,18.21
2018-06-01T01:31:47.534Z,18.20
2018-06-01T01:32:08.802Z,18.19
2018-06-01T01:32:31.794Z,18.19
2018-06-01T01:32:54.578Z,18.18
2018-06-01T01:33:16.215Z,18.15
2018-06-01T01:33:38.950Z,18.14
2018-06-01T01:34:00.244Z,18.16
2018-06-01T01:34:23.271Z,18.15
2018-06-01T01:34:44.927Z,18.15
2018-06-01T01:35:06.185Z,18.17
2018-06-01T01:35:27.505Z,18.19
2018-06-01T01:35:50.634Z,18.20
2018-06-01T01:36:13.404Z,18.22
2018-06-01T01:36:36.443Z,18.25
2018-06-01T01:36:57.716Z,18.21
2018-06-01T01:37:31.495Z,18.19
2018-06-01T01:37:53.487Z,18.20
2018-06-01T01:38:16.524Z,18.19
2018-06-01T01:38:39.533Z,18.19
2018-06-01T01:39:00.808Z,18.14
2018-06-01T01:39:23.809Z,18.09
2018-06-01T01:39:45.053Z,18.08
2018-06-01T01:40:06.274Z,18.03
2018-06-01T01:40:28.657Z,18.00
2018-06-01T01:40:57.645Z,18.00
2018-06-01T01:41:19.273Z,17.98
2018-06-01T01:41:42.254Z,17.93
2018-06-01T01:42:03.529Z,17.95
2018-06-01T01:42:26.536Z,17.94
2018-06-01T01:42:48.527Z,17.99
2018-06-01T01:43:11.539Z,17.96
2018-06-01T01:43:34.315Z,18.00
2018-06-01T01:43:57.356Z,18.01
2018-06-01T01:44:19.032Z,17.98
2018-06-01T01:44:41.402Z,18.03
2018-06-01T01:45:03.864Z,18.05
2018-06-01T01:45:26.617Z,18.07
2018-06-01T01:45:49.611Z,18.05
2018-06-01T01:46:11.641Z,18.07
2018-06-01T01:46:34.086Z,18.12
2018-06-01T01:46:55.699Z,18.13
2018-06-01T01:47:18.780Z,18.17
2018-06-01T01:47:41.765Z,18.18
2018-06-01T01:48:04.781Z,18.16
2018-06-01T01:48:27.791Z,18.16
2018-06-01T01:48:49.443Z,18.14
2018-06-01T01:49:11.447Z,18.12
2018-06-01T01:49:33.859Z,18.13
2018-06-01T01:49:56.868Z,18.11
2018-06-01T01:50:19.625Z,18.11
2018-06-01T01:50:41.991Z,18.11
2018-06-01T01:51:03.604Z,18.06
2018-06-01T01:51:25.609Z,18.07
2018-06-01T01:51:48.590Z,18.07
2018-06-01T01:52:10.203Z,18.06
2018-06-01T01:52:33.181Z,18.10
2018-06-01T01:52:55.969Z,18.10
2018-06-01T01:53:17.991Z,18.11
2018-06-01T01:53:39.602Z,18.11
2018-06-01T01:54:02.652Z,18.12
2018-06-01T01:54:24.271Z,18.09
2018-06-01T01:54:45.505Z,18.12
2018-06-01T01:55:08.503Z,18.12
2018-06-01T01:55:31.498Z,18.09
2018-06-01T01:55:54.514Z,18.06
2018-06-01T01:56:16.307Z,18.08
2018-06-01T01:56:38.704Z,18.09
2018-06-01T01:56:59.959Z,18.10
2018-06-01T01:57:22.947Z,18.09
2018-06-01T01:57:45.924Z,18.11
2018-06-01T01:58:07.535Z,18.13
2018-06-01T01:58:29.190Z,18.14
2018-06-01T01:58:51.557Z,18.19
2018-06-01T01:59:12.865Z,18.20
2018-06-01T01:59:34.867Z,18.23
2018-06-01T01:59:57.585Z,18.23
2018-06-01T02:00:20.570Z,18.24
2018-06-01T02:00:42.885Z,18.26
2018-06-01T02:01:05.615Z,18.28
2018-06-01T02:01:27.665Z,18.28
2018-06-01T02:01:50.023Z,18.33
2018-06-01T02:02:13.013Z,18.34
2018-06-01T02:02:35.999Z,18.34
2018-06-01T02:02:58.332Z,18.36
2018-06-01T02:03:21.310Z,18.36
2018-06-01T02:03:44.297Z,18.38
2018-06-01T02:04:07.301Z,18.39
2018-06-01T02:04:29.632Z,18.36
2018-06-01T02:04:52.618Z,18.29
2018-06-01T02:05:14.331Z,18.20
2018-06-01T02:05:36.704Z,18.18
2018-06-01T02:05:59.669Z,18.17
2018-06-01T02:06:21.624Z,18.18
2018-06-01T02:06:44.606Z,18.15
2018-06-01T02:07:06.643Z,18.16
2018-06-01T02:07:27.842Z,18.13
2018-06-01T02:07:50.816Z,18.14
2018-06-01T02:08:13.772Z,18.13
2018-06-01T02:08:36.754Z,18.12
2018-06-01T02:08:59.746Z,18.08
2018-06-01T02:09:21.695Z,18.06
2018-06-01T02:09:44.685Z,18.06
2018-06-01T02:10:06.283Z,18.05
2018-06-01T02:10:28.997Z,18.05
2018-06-01T02:10:50.968Z,18.03
2018-06-01T02:11:13.310Z,18.02
2018-06-01T02:11:36.280Z,17.95
2018-06-01T02:11:58.610Z,17.98
2018-06-01T02:12:20.201Z,17.95
2018-06-01T02:12:41.407Z,17.94
2018-06-01T02:13:03.394Z,17.90
2018-06-01T02:13:26.083Z,17.86
2018-06-01T02:13:49.064Z,17.86
2018-06-01T02:14:12.022Z,17.85
2018-06-01T02:14:34.557Z,17.82
2018-06-01T02:14:56.551Z,17.84
2018-06-01T02:15:18.531Z,17.80
2018-06-01T02:15:41.231Z,17.82
2018-06-01T02:16:03.567Z,17.80
2018-06-01T02:16:26.562Z,17.83
2018-06-01T02:16:48.170Z,17.80
2018-06-01T02:17:10.546Z,17.83
2018-06-01T02:17:33.517Z,17.80
2018-06-01T02:17:56.485Z,17.78
2018-06-01T02:18:17.745Z,17.80
2018-06-01T02:18:40.683Z,17.78
2018-06-01T02:19:03.667Z,17.76
2018-06-01T02:19:26.678Z,17.80
2018-06-01T02:19:49.007Z,17.78
2018-06-01T02:20:10.259Z,17.75
2018-06-01T02:20:33.355Z,17.75
2018-06-01T02:20:56.062Z,17.75
2018-06-01T02:21:19.025Z,17.72
2018-06-01T02:21:40.726Z,17.73
2018-06-01T02:22:01.938Z,17.71
2018-06-01T02:22:24.934Z,17.72
2018-06-01T02:22:47.951Z,17.73
2018-06-01T02:23:09.225Z,17.70
2018-06-01T02:23:30.421Z,17.69
2018-06-01T02:23:52.791Z,17.75
2018-06-01T02:24:15.141Z,17.77
2018-06-01T02:24:36.353Z,17.75
2018-06-01T02:24:57.569Z,17.75
2018-06-01T02:25:20.572Z,17.80
2018-06-01T02:25:43.573Z,17.78
2018-06-01T02:26:04.817Z,17.79
2018-06-01T02:26:26.058Z,17.78
2018-06-01T02:26:47.749Z,17.80
2018-06-01T02:27:10.715Z,17.80
2018-06-01T02:27:31.962Z,17.81
2018-06-01T02:27:54.963Z,17.82
2018-06-01T02:28:16.952Z,17.83
2018-06-01T02:28:39.913Z,17.81
2018-06-01T02:29:02.314Z,17.81
2018-06-01T02:29:23.896Z,17.80
2018-06-01T02:29:45.127Z,17.80
2018-06-01T02:30:08.118Z,17.84
2018-06-01T02:30:29.721Z,17.83
2018-06-01T02:30:50.954Z,17.83
2018-06-01T02:31:13.939Z,17.85
2018-06-01T02:31:36.309Z,17.85
2018-06-01T02:31:57.925Z,17.82
2018-06-01T02:32:19.537Z,17.85
2018-06-01T02:32:42.535Z,17.86
2018-06-01T02:33:05.495Z,17.88
2018-06-01T02:33:28.477Z,17.88
2018-06-01T02:33:51.464Z,17.90
2018-06-01T02:34:13.060Z,17.90
2018-06-01T02:34:34.763Z,17.93
2018-06-01T02:34:57.743Z,17.93
2018-06-01T02:35:20.716Z,17.93
2018-06-01T02:35:43.683Z,17.94
2018-06-01T02:36:04.917Z,17.97
2018-06-01T02:36:27.888Z,18.01
2018-06-01T02:36:49.118Z,17.99
2018-06-01T02:37:10.738Z,18.02
2018-06-01T02:37:33.883Z,18.00
2018-06-01T02:37:55.173Z,17.99
2018-06-01T02:38:18.162Z,18.05
2018-06-01T02:38:41.153Z,18.01
2018-06-01T02:39:02.842Z,18.03
2018-06-01T02:39:25.158Z,18.04
2018-06-01T02:39:47.867Z,18.07
2018-06-01T02:40:10.828Z,18.07
2018-06-01T02:40:33.785Z,18.07
2018-06-01T02:40:56.540Z,18.11
2018-06-01T02:41:18.203Z,18.10
2018-06-01T02:41:40.534Z,18.12
2018-06-01T02:42:03.514Z,18.13
2018-06-01T02:42:25.129Z,18.13
2018-06-01T02:42:48.103Z,18.17
2018-06-01T02:43:10.475Z,18.16
2018-06-01T02:43:33.473Z,18.14
2018-06-01T02:43:55.278Z,18.15
2018-06-01T02:44:17.258Z,18.16
2018-06-01T02:44:40.230Z,18.16
2018-06-01T02:45:02.202Z,18.17
2018-06-01T02:45:25.195Z,18.16
2018-06-01T02:45:48.205Z,18.18
2018-06-01T02:46:09.873Z,18.15
2018-06-01T02:46:32.842Z,18.16
2018-06-01T02:46:55.845Z,18.15
2018-06-01T02:47:18.819Z,18.17
2018-06-01T02:47:41.797Z,18.20
2018-06-01T02:48:04.759Z,18.18
2018-06-01T02:48:27.716Z,18.19
2018-06-01T02:48:50.679Z,18.18
2018-06-01T02:49:12.676Z,18.19
2018-06-01T02:49:33.911Z,18.14
2018-06-01T02:49:55.541Z,18.17
2018-06-01T02:50:17.543Z,18.18
2018-06-01T02:50:40.539Z,18.18
2018-06-01T02:51:02.130Z,18.18
2018-06-01T02:51:25.138Z,18.20
2018-06-01T02:51:48.203Z,18.20
2018-06-01T02:52:11.161Z,18.20
2018-06-01T02:52:32.381Z,18.16
2018-06-01T02:52:55.329Z,18.17
2018-06-01T02:53:18.272Z,18.12
2018-06-01T02:53:41.271Z,18.12
2018-06-01T02:54:03.283Z,18.13
2018-06-01T02:54:24.894Z,18.16
2018-06-01T02:54:47.906Z,18.12
2018-06-01T02:55:10.869Z,18.12
2018-06-01T02:55:33.855Z,18.15
2018-06-01T02:55:55.862Z,18.12
2018-06-01T02:56:18.577Z,18.11
2018-06-01T02:56:41.573Z,18.10
2018-06-01T02:57:04.250Z,18.10
2018-06-01T02:57:26.242Z,18.08
2018-06-01T02:57:49.286Z,18.10
2018-06-01T02:58:11.300Z,18.09
2018-06-01T02:58:33.637Z,18.12
2018-06-01T02:58:56.581Z,18.11
2018-06-01T02:59:18.228Z,18.10
2018-06-01T02:59:40.204Z,18.13
2018-06-01T03:00:02.983Z,18.08
2018-06-01T03:00:24.237Z,18.04
2018-06-01T03:00:47.270Z,18.05
2018-06-01T03:01:09.637Z,18.06
2018-06-01T03:01:32.376Z,18.04
2018-06-01T03:01:53.959Z,18.01
2018-06-01T03:02:15.903Z,18.00
2018-06-01T03:02:38.880Z,18.01
2018-06-01T03:03:00.485Z,18.03
2018-06-01T03:03:23.189Z,18.05
2018-06-01T03:03:46.199Z,18.08
2018-06-01T03:04:08.575Z,18.07
2018-06-01T03:04:30.881Z,18.06
2018-06-01T03:04:53.840Z,18.09
2018-06-01T03:05:15.436Z,18.10
2018-06-01T03:05:37.435Z,18.13
2018-06-01T03:06:00.395Z,18.12
2018-06-01T03:06:23.401Z,18.12
2018-06-01T03:07:17.059Z,18.15
2018-06-01T03:07:39.010Z,18.15
2018-06-01T03:08:01.979Z,18.15
2018-06-01T03:08:23.989Z,18.14
2018-06-01T03:08:46.946Z,18.16
2018-06-01T03:09:08.218Z,18.14
2018-06-01T03:09:30.943Z,18.15
2018-06-01T03:09:52.152Z,18.15
2018-06-01T03:10:13.384Z,18.15
2018-06-01T03:10:36.432Z,18.14
2018-06-01T03:10:58.038Z,18.16
2018-06-01T03:11:20.414Z,18.17
2018-06-01T03:11:43.378Z,18.19
2018-06-01T03:12:05.056Z,18.20
2018-06-01T03:12:27.023Z,18.19
2018-06-01T03:12:48.616Z,18.18
2018-06-01T03:13:11.323Z,18.20
2018-06-01T03:13:33.291Z,18.20
2018-06-01T03:13:54.502Z,18.16
2018-06-01T03:14:16.480Z,18.19
2018-06-01T03:14:38.104Z,18.18
2018-06-01T03:15:01.114Z,18.19
2018-06-01T03:15:24.075Z,18.17
2018-06-01T03:15:47.029Z,18.19
2018-06-01T03:16:10.026Z,18.20
2018-06-01T03:16:32.751Z,18.21
2018-06-01T03:16:55.075Z,18.23
2018-06-01T03:17:16.305Z,18.20
2018-06-01T03:17:37.915Z,18.20
2018-06-01T03:18:00.885Z,18.17
2018-06-01T03:18:23.843Z,18.17
2018-06-01T03:18:46.811Z,18.19
2018-06-01T03:19:08.090Z,18.16
2018-06-01T03:19:29.337Z,18.15
2018-06-01T03:19:52.308Z,18.18
2018-06-01T03:20:15.057Z,18.18
2018-06-01T03:20:38.056Z,18.19
2018-06-01T03:21:00.403Z,18.19
2018-06-01T03:21:22.383Z,18.18
2018-06-01T03:21:43.595Z,18.20
2018-06-01T03:22:06.597Z,18.22
2018-06-01T03:22:27.872Z,18.21
2018-06-01T03:22:49.463Z,18.21
2018-06-01T03:23:11.797Z,18.22
2018-06-01T03:23:34.155Z,18.19
2018-06-01T03:23:55.407Z,18.18
2018-06-01T03:24:17.060Z,18.20
2018-06-01T03:24:40.039Z,18.18
2018-06-01T03:25:01.643Z,18.15
2018-06-01T03:25:24.000Z,18.14
2018-06-01T03:25:46.335Z,18.15
2018-06-01T03:26:09.367Z,18.15
2018-06-01T03:26:31.299Z,18.11
2018-06-01T03:26:54.274Z,18.10
2018-06-01T03:27:16.321Z,18.12
2018-06-01T03:27:37.910Z,18.11
2018-06-01T03:28:00.274Z,18.10
2018-06-01T03:28:23.231Z,18.08
2018-06-01T03:28:46.207Z,18.07
2018-06-01T03:29:07.459Z,18.03
2018-06-01T03:29:30.449Z,18.05
2018-06-01T03:29:51.680Z,18.03
2018-06-01T03:30:14.450Z,18.04
2018-06-01T03:30:36.439Z,18.02
2018-06-01T03:30:58.899Z,17.98
2018-06-01T03:31:21.895Z,17.96
2018-06-01T03:31:43.188Z,17.94
2018-06-01T03:32:05.858Z,17.94
2018-06-01T03:32:27.428Z,17.94
2018-06-01T03:32:50.419Z,17.94
2018-06-01T03:33:12.797Z,17.92
2018-06-01T03:33:35.774Z,17.94
2018-06-01T03:33:58.535Z,17.93
2018-06-01T03:34:19.810Z,17.92
2018-06-01T03:34:42.141Z,17.93
2018-06-01T03:35:04.455Z,17.91
2018-06-01T03:35:27.467Z,17.88
2018-06-01T03:35:49.084Z,17.87
2018-06-01T03:36:10.294Z,17.86
2018-06-01T03:36:32.673Z,17.88
2018-06-01T03:36:55.634Z,17.87
2018-06-01T03:37:16.871Z,17.87
2018-06-01T03:37:38.869Z,17.89
2018-06-01T03:38:00.076Z,17.87
2018-06-01T03:38:22.449Z,17.90
2018-06-01T03:38:43.730Z,17.88
2018-06-01T03:39:05.019Z,17.90
2018-06-01T03:39:26.306Z,17.91
2018-06-01T03:39:49.327Z,17.89
2018-06-01T03:40:47.289Z,17.87
2018-06-01T03:41:10.296Z,17.90
2018-06-01T03:41:33.259Z,17.88
2018-06-01T03:41:56.224Z,17.92
2018-06-01T03:42:19.208Z,17.94
2018-06-01T03:42:42.236Z,17.94
2018-06-01T03:43:05.204Z,17.94
2018-06-01T03:43:28.153Z,17.94
2018-06-01T03:43:49.405Z,17.93
2018-06-01T03:44:12.391Z,17.93
2018-06-01T03:44:35.383Z,17.94
2018-06-01T03:44:58.366Z,17.95
2018-06-01T03:45:19.588Z,17.90
2018-06-01T03:45:41.193Z,17.91
2018-06-01T03:46:02.867Z,17.90
2018-06-01T03:46:24.121Z,17.89
2018-06-01T03:46:47.084Z,17.93
2018-06-01T03:47:09.182Z,17.93
2018-06-01T03:47:31.235Z,17.92
2018-06-01T03:47:53.245Z,17.92
2018-06-01T03:48:14.504Z,17.86
2018-06-01T03:48:37.499Z,17.88
2018-06-01T03:48:58.746Z,17.87
2018-06-01T03:49:21.772Z,17.87
2018-06-01T03:49:43.743Z,17.88
2018-06-01T03:50:06.746Z,17.91
2018-06-01T03:50:27.985Z,17.91
2018-06-01T03:50:49.968Z,17.92
2018-06-01T03:51:11.199Z,17.88
2018-06-01T03:51:32.428Z,17.88
2018-06-01T03:51:55.955Z,17.92
2018-06-01T03:52:18.940Z,17.93
2018-06-01T03:52:41.678Z,17.93
2018-06-01T03:53:04.674Z,17.94
2018-06-01T03:53:26.677Z,17.92
2018-06-01T03:53:49.408Z,17.93
2018-06-01T03:54:10.665Z,17.91
2018-06-01T03:54:33.676Z,17.92
2018-06-01T03:54:55.283Z,17.86
2018-06-01T03:55:18.289Z,17.89
2018-06-01T03:55:40.345Z,17.86
2018-06-01T03:56:02.353Z,17.89
2018-06-01T03:56:24.294Z,17.88
2018-06-01T03:56:45.606Z,17.88
2018-06-01T03:57:08.574Z,17.92
2018-06-01T03:57:30.174Z,17.90
2018-06-01T03:57:53.162Z,17.88
2018-06-01T03:58:14.391Z,17.88
2018-06-01T03:58:37.463Z,17.88
2018-06-01T03:58:59.086Z,17.88
2018-06-01T03:59:22.112Z,17.88
2018-06-01T03:59:45.077Z,17.93
2018-06-01T04:00:08.098Z,17.94
2018-06-01T04:00:30.218Z,17.92
2018-06-01T04:00:52.591Z,17.91
2018-06-01T04:01:13.893Z,17.90
2018-06-01T04:01:36.246Z,17.96
2018-06-01T04:01:59.255Z,17.97
2018-06-01T04:02:20.885Z,18.00
2018-06-01T04:02:43.913Z,17.99
2018-06-01T04:03:05.535Z,18.00
2018-06-01T04:03:26.809Z,18.02
2018-06-01T04:03:49.167Z,18.00
2018-06-01T04:04:12.174Z,18.02
2018-06-01T04:04:35.157Z,18.05
2018-06-01T04:04:56.419Z,18.04
2018-06-01T04:05:19.426Z,18.08
2018-06-01T04:05:42.434Z,18.08
2018-06-01T04:06:05.426Z,18.05
2018-06-01T04:06:28.430Z,18.04
2018-06-01T04:06:50.782Z,18.03
2018-06-01T04:07:13.767Z,18.04
2018-06-01T04:07:36.759Z,18.01
2018-06-01T04:07:59.773Z,18.03
2018-06-01T04:08:22.716Z,18.02
2018-06-01T04:08:45.660Z,18.02
2018-06-01T04:09:06.921Z,17.98
2018-06-01T04:09:29.926Z,17.98
2018-06-01T04:09:52.666Z,18.03
2018-06-01T04:10:15.643Z,18.01
2018-06-01T04:10:38.585Z,17.98
2018-06-01T04:11:00.573Z,18.01
2018-06-01T04:11:22.221Z,18.08
2018-06-01T04:11:44.227Z,18.14
2018-06-01T04:12:07.222Z,18.23
2018-06-01T04:12:29.583Z,18.23
2018-06-01T04:12:51.599Z,18.25
2018-06-01T04:13:13.250Z,18.32
2018-06-01T04:13:36.341Z,18.38
2018-06-01T04:13:59.321Z,18.51
2018-06-01T04:14:22.343Z,18.69
2018-06-01T04:14:45.070Z,18.77
2018-06-01T04:15:07.796Z,18.79
2018-06-01T04:15:30.774Z,18.88
2018-06-01T04:15:52.388Z,18.93
2018-06-01T04:16:15.337Z,18.99
2018-06-01T04:16:38.303Z,19.09
2018-06-01T04:17:00.322Z,19.26
2018-06-01T04:17:22.684Z,19.34
2018-06-01T04:17:45.054Z,19.38
2018-06-01T04:18:08.016Z,19.48
2018-06-01T04:18:29.649Z,19.54
2018-06-01T04:18:52.393Z,19.53
2018-06-01T04:19:15.373Z,19.52
2018-06-01T04:19:38.418Z,19.41
2018-06-01T04:20:01.397Z,19.48
2018-06-01T04:20:24.391Z,19.39
2018-06-01T04:20:47.365Z,19.40
2018-06-01T04:21:10.032Z,19.31
2018-06-01T04:21:31.301Z,19.31
2018-06-01T04:21:54.291Z,19.30
2018-06-01T04:22:15.566Z,19.21
2018-06-01T04:22:38.309Z,19.13
2018-06-01T04:22:59.564Z,19.09
2018-06-01T04:23:22.561Z,19.02
2018-06-01T04:23:45.541Z,18.98
2018-06-01T04:24:08.533Z,19.08
2018-06-01T04:24:30.937Z,19.14
2018-06-01T04:24:52.220Z,19.14
2018-06-01T04:25:13.839Z,19.19
2018-06-01T04:25:35.856Z,19.14
2018-06-01T04:25:58.835Z,19.08
2018-06-01T04:26:21.812Z,19.04
2018-06-01T04:26:43.808Z,19.00
2018-06-01T04:27:05.485Z,18.96
2018-06-01T04:27:26.723Z,19.00
2018-06-01T04:27:48.749Z,19.07
2018-06-01T04:28:11.479Z,19.05
2018-06-01T04:28:32.770Z,19.13
2018-06-01T04:28:55.789Z,19.17
2018-06-01T04:29:18.219Z,19.28
2018-06-01T04:29:40.597Z,19.41
2018-06-01T04:30:02.296Z,19.39
2018-06-01T04:30:24.262Z,19.42
2018-06-01T04:30:45.885Z,19.51
2018-06-01T04:31:07.890Z,19.60
2018-06-01T04:31:30.633Z,19.75
2018-06-01T04:31:53.727Z,19.74
2018-06-01T04:32:16.485Z,19.86
2018-06-01T04:32:39.472Z,19.94
2018-06-01T04:33:01.847Z,20.07
2018-06-01T04:33:24.848Z,20.19
2018-06-01T04:33:46.499Z,20.33
2018-06-01T04:34:08.162Z,20.34
2018-06-01T04:34:29.442Z,20.46
2018-06-01T04:34:50.689Z,20.52
2018-06-01T04:35:13.099Z,20.72
2018-06-01T04:35:36.101Z,20.57
2018-06-01T04:35:59.080Z,20.67
2018-06-01T04:36:20.354Z,20.48
2018-06-01T04:36:42.333Z,20.50
2018-06-01T04:37:04.679Z,20.50
2018-06-01T04:37:27.317Z,20.57
2018-06-01T04:37:48.655Z,20.49
2018-06-01T04:38:10.644Z,20.47
2018-06-01T04:38:33.015Z,20.29
2018-06-01T04:38:56.045Z,20.07
2018-06-01T04:39:19.064Z,20.04
2018-06-01T04:39:42.068Z,19.94
2018-06-01T04:40:03.341Z,19.72
2018-06-01T04:40:26.344Z,19.56
2018-06-01T04:40:49.326Z,19.66
2018-06-01T04:41:10.968Z,19.73
2018-06-01T04:41:32.603Z,19.73
2018-06-01T04:41:55.609Z,19.68
2018-06-01T04:42:17.606Z,19.67
2018-06-01T04:42:39.606Z,19.58
2018-06-01T04:43:01.972Z,19.51
2018-06-01T04:43:24.945Z,19.51
2018-06-01T04:43:46.587Z,19.52
2018-06-01T04:44:09.572Z,19.47
2018-06-01T04:44:31.307Z,19.49
2018-06-01T04:44:54.301Z,19.50
2018-06-01T04:45:16.278Z,19.50
2018-06-01T04:45:39.064Z,19.50
2018-06-01T04:46:02.070Z,19.50
2018-06-01T04:46:23.721Z,19.46
2018-06-01T04:46:46.493Z,19.52
2018-06-01T04:47:08.108Z,19.63
2018-06-01T04:47:30.200Z,19.71
2018-06-01T04:47:51.828Z,19.93
2018-06-01T04:48:14.232Z,20.08